createdAt,value
2023-03-23T15:58:57.724Z,3.43
2023-03-23T16:02:25.339Z,5.87
2023-03-23T17:11:11.763Z,8.93
2023-03-23T17:13:38.586Z,8.23
2023-03-23T17:16:05.860Z,7.60
2023-03-23T17:18:32.759Z,12.00
2023-03-23T17:20:59.578Z,6.47
2023-03-23T17:23:26.611Z,5.40
2023-03-23T17:25:54.339Z,7.40
2023-03-23T17:28:21.213Z,4.63
2023-03-23T17:30:48.560Z,7.33
2023-03-23T17:34:04.682Z,3.03
2023-03-23T17:36:31.591Z,4.90
2023-03-23T17:38:58.500Z,4.33
2023-03-23T17:41:25.613Z,6.20
2023-03-23T17:43:52.258Z,3.23
2023-03-23T17:46:19.003Z,4.93
2023-03-23T17:48:45.988Z,4.63
2023-03-23T17:51:12.710Z,5.90
2023-03-23T17:53:39.568Z,7.60
2023-03-23T17:56:06.888Z,3.97
2023-03-23T17:58:35.518Z,4.20
2023-03-23T18:01:02.746Z,2.50
2023-03-23T18:03:30.090Z,3.77
2023-03-23T18:06:02.254Z,6.87
2023-03-23T18:08:30.143Z,5.93
2023-03-23T18:10:58.199Z,7.20
2023-03-23T18:13:26.826Z,5.50
2023-03-23T18:15:55.273Z,9.63
2023-03-23T18:18:23.598Z,6.13
2023-03-23T18:21:03.159Z,5.57
2023-03-23T18:23:38.973Z,6.67
2023-03-23T18:26:13.699Z,6.40
2023-03-23T18:28:40.817Z,7.07
2023-03-23T18:31:14.145Z,7.73
2023-03-23T18:33:46.877Z,8.87
2023-03-23T18:38:46.785Z,6.03
2023-03-23T18:41:14.498Z,9.57
2023-03-23T18:43:41.863Z,9.60
2023-03-23T18:46:08.884Z,6.90
2023-03-23T18:48:36.365Z,8.17
2023-03-23T18:51:04.241Z,8.30
2023-03-23T18:53:31.384Z,7.77
2023-03-23T18:56:16.580Z,8.43
2023-03-23T18:58:44.401Z,11.60
2023-03-23T19:01:13.738Z,12.20
2023-03-23T19:03:41.597Z,6.80
2023-03-23T19:06:35.168Z,9.47
2023-03-23T19:09:03.236Z,7.23
2023-03-23T19:11:30.194Z,9.53
2023-03-23T19:16:27.156Z,4.57
2023-03-23T19:18:53.891Z,4.70
2023-03-23T19:21:24.946Z,7.30
2023-03-23T19:23:52.610Z,4.10
2023-03-23T19:26:23.964Z,5.00
2023-03-23T19:31:23.799Z,3.93
2023-03-23T19:33:53.057Z,3.23
2023-03-23T19:36:24.318Z,3.43
2023-03-23T19:38:51.967Z,6.60
2023-03-23T19:41:19.379Z,7.60
2023-03-23T19:43:46.268Z,8.73
2023-03-23T19:46:14.556Z,6.83
2023-03-23T19:48:41.762Z,9.47
2023-03-23T19:51:09.821Z,8.93
2023-03-23T19:53:36.641Z,10.97
2023-03-23T19:56:05.130Z,15.77
2023-03-23T19:58:32.661Z,8.97
2023-03-23T20:01:01.140Z,8.93
2023-03-23T20:03:28.457Z,7.70
2023-03-23T20:06:05.839Z,7.63
2023-03-23T20:08:33.113Z,8.60
2023-03-23T20:11:08.783Z,5.53
2023-03-23T20:13:35.953Z,3.80
2023-03-23T20:16:03.257Z,3.30
2023-03-23T20:18:31.510Z,5.40
2023-03-23T20:21:10.861Z,3.20
2023-03-23T20:23:39.443Z,3.37
2023-03-23T20:26:12.568Z,5.37
2023-03-23T20:28:40.703Z,3.50
2023-03-23T20:31:23.225Z,5.40
2023-03-23T20:34:00.017Z,4.83
2023-03-23T20:36:36.339Z,2.67
2023-03-23T20:39:21.554Z,2.93
2023-03-23T20:41:50.949Z,2.63
2023-03-23T20:44:19.135Z,3.70
2023-03-23T20:46:47.960Z,3.80
2023-03-23T20:49:16.053Z,4.57
2023-03-23T20:51:43.753Z,4.23
2023-03-23T20:54:14.189Z,4.60
2023-03-23T20:56:42.486Z,4.23
2023-03-23T20:59:10.060Z,3.07
2023-03-23T21:01:40.035Z,4.37
2023-03-23T21:04:15.664Z,3.40
2023-03-23T21:06:44.407Z,4.83
2023-03-23T21:09:11.914Z,5.27
2023-03-23T21:11:38.795Z,4.93
2023-03-23T21:14:06.884Z,3.07
2023-03-23T21:16:33.893Z,2.90
2023-03-23T21:19:03.137Z,3.90
2023-03-23T21:21:30.238Z,3.07
2023-03-23T21:23:57.548Z,2.77
2023-03-23T21:26:27.908Z,2.57
2023-03-23T21:28:55.048Z,3.73
2023-03-23T21:31:25.582Z,3.43
2023-03-23T21:33:52.377Z,2.67
2023-03-23T21:36:19.495Z,4.40
2023-03-23T21:38:50.138Z,2.83
2023-03-23T21:41:16.988Z,3.67
2023-03-23T21:43:45.981Z,3.77
2023-03-23T21:46:18.168Z,6.97
2023-03-23T21:48:51.654Z,2.85
2023-03-23T21:51:24.251Z,3.67
2023-03-23T21:53:54.513Z,2.38
2023-03-23T21:56:23.295Z,4.53
2023-03-23T21:58:50.575Z,3.67
2023-03-23T22:01:18.114Z,2.93
2023-03-23T22:03:45.181Z,7.03
2023-03-23T22:06:24.957Z,3.87
2023-03-23T22:08:52.868Z,4.00
2023-03-23T22:11:25.161Z,5.17
2023-03-23T22:13:54.209Z,4.85
2023-03-23T22:16:22.252Z,4.13
2023-03-23T22:18:51.433Z,5.40
2023-03-23T22:21:20.201Z,6.80
2023-03-23T22:23:46.944Z,3.60
2023-03-23T22:26:15.569Z,5.27
2023-03-23T22:28:43.077Z,4.63
2023-03-23T22:31:17.270Z,2.77
2023-03-23T22:33:45.748Z,3.43
2023-03-23T22:36:12.658Z,3.20
2023-03-23T22:38:42.194Z,6.63
2023-03-23T22:41:13.433Z,7.67
2023-03-23T22:43:40.088Z,3.43
2023-03-23T22:46:07.315Z,6.83
2023-03-23T22:48:34.188Z,4.40
2023-03-23T22:51:01.559Z,4.60
2023-03-23T22:53:28.417Z,6.47
2023-03-23T22:55:57.194Z,5.87
2023-03-23T22:58:26.041Z,4.80
2023-03-23T23:00:59.492Z,4.17
2023-03-23T23:03:27.274Z,6.13
2023-03-23T23:05:56.027Z,6.17
2023-03-23T23:08:24.888Z,3.50
2023-03-23T23:10:53.189Z,7.27
2023-03-23T23:13:20.785Z,4.63
2023-03-23T23:15:51.685Z,3.53
2023-03-23T23:18:20.315Z,5.73
2023-03-23T23:20:55.183Z,5.27
2023-03-23T23:23:23.226Z,4.90
2023-03-23T23:25:50.834Z,7.10
2023-03-23T23:28:18.341Z,6.87
2023-03-23T23:30:45.933Z,6.23
2023-03-23T23:33:12.925Z,6.10
2023-03-23T23:35:41.035Z,6.50
2023-03-23T23:38:12.804Z,5.67
2023-03-23T23:40:41.519Z,9.13
2023-03-23T23:43:10.398Z,9.10
2023-03-23T23:45:37.527Z,8.80
2023-03-23T23:48:05.572Z,6.97
2023-03-23T23:50:32.456Z,10.03
2023-03-23T23:52:59.458Z,9.20
2023-03-23T23:55:27.172Z,10.50
2023-03-23T23:57:54.509Z,7.57
